createdAt,value
2017-03-09T00:00:52.518Z,99.99
2017-03-09T00:02:02.255Z,99.99
2017-03-09T00:03:11.185Z,99.99
2017-03-09T00:04:20.600Z,99.99
2017-03-09T00:05:29.514Z,99.99
2017-03-09T00:06:39.276Z,99.99
2017-03-09T00:07:48.184Z,99.99
2017-03-09T00:08:57.936Z,99.99
2017-03-09T00:10:07.770Z,99.99
2017-03-09T00:11:17.523Z,99.99
2017-03-09T00:12:26.849Z,99.99
2017-03-09T00:13:35.768Z,99.99
2017-03-09T00:14:44.704Z,99.99
2017-03-09T00:15:54.087Z,99.99
2017-03-09T00:17:03.019Z,99.99
2017-03-09T00:18:12.751Z,99.99
2017-03-09T00:19:21.670Z,99.99
2017-03-09T00:20:30.623Z,99.99
2017-03-09T00:21:40.010Z,99.99
2017-03-09T00:22:49.339Z,99.99
2017-03-09T00:23:58.652Z,99.99
2017-03-09T00:25:08.413Z,99.99
2017-03-09T00:26:17.336Z,99.99
2017-03-09T00:27:26.619Z,99.99
2017-03-09T00:28:35.968Z,99.99
2017-03-09T00:29:45.690Z,99.99
2017-03-09T00:30:55.002Z,99.99
2017-03-09T00:32:04.322Z,99.99
2017-03-09T00:33:13.771Z,99.99
2017-03-09T00:34:22.677Z,99.99
2017-03-09T00:35:32.017Z,99.99
2017-03-09T00:36:42.159Z,99.99
2017-03-09T00:37:51.896Z,99.99
2017-03-09T00:39:02.304Z,99.99
2017-03-09T00:40:12.495Z,99.99
2017-03-09T00:41:21.846Z,99.99
2017-03-09T00:42:31.588Z,99.99
2017-03-09T00:43:40.498Z,99.99
2017-03-09T00:44:50.383Z,99.99
2017-03-09T00:46:00.116Z,99.99
2017-03-09T00:47:09.873Z,99.97
2017-03-09T00:48:19.193Z,99.99
2017-03-09T00:49:29.362Z,99.99
2017-03-09T00:50:38.850Z,99.99
2017-03-09T00:51:48.183Z,99.99
2017-03-09T00:52:57.907Z,99.99
2017-03-09T00:54:07.238Z,99.99
2017-03-09T00:55:17.386Z,99.99
2017-03-09T00:56:27.122Z,99.99
2017-03-09T00:57:36.870Z,99.99
2017-03-09T00:58:46.612Z,99.99
2017-03-09T00:59:55.945Z,99.99
2017-03-09T01:01:06.093Z,99.87
2017-03-09T01:02:15.175Z,99.77
2017-03-09T01:03:24.897Z,99.99
2017-03-09T01:04:34.224Z,99.77
2017-03-09T01:05:43.136Z,99.99
2017-03-09T01:06:52.496Z,99.99
2017-03-09T01:08:01.883Z,99.99
2017-03-09T01:09:12.439Z,99.97
2017-03-09T01:10:21.778Z,99.99
2017-03-09T01:11:31.512Z,99.99
2017-03-09T01:12:41.259Z,99.68
2017-03-09T01:13:50.722Z,99.77
2017-03-09T01:15:00.070Z,99.99
2017-03-09T01:16:09.452Z,99.21
2017-03-09T01:17:18.373Z,99.99
2017-03-09T01:18:27.701Z,99.99
2017-03-09T01:19:37.169Z,99.99
2017-03-09T01:20:46.087Z,99.99
2017-03-09T01:21:56.230Z,99.99
2017-03-09T01:23:05.560Z,99.99
2017-03-09T01:24:15.285Z,99.99
2017-03-09T01:25:24.664Z,99.99
2017-03-09T01:26:33.574Z,99.99
2017-03-09T01:27:42.921Z,99.99
2017-03-09T01:28:52.284Z,99.99
2017-03-09T01:30:02.421Z,99.99
2017-03-09T01:31:11.892Z,99.99
2017-03-09T01:32:21.213Z,99.99
2017-03-09T01:33:30.533Z,99.99
2017-03-09T01:34:39.872Z,99.68
2017-03-09T01:35:49.603Z,99.3
2017-03-09T01:36:59.234Z,98.92
2017-03-09T01:38:08.556Z,99.49
2017-03-09T01:39:17.470Z,99.3
2017-03-09T01:40:27.639Z,99.4
2017-03-09T01:41:37.393Z,99.49
2017-03-09T01:42:46.878Z,99.4
2017-03-09T01:43:57.014Z,98.83
2017-03-09T01:45:06.743Z,99.77
2017-03-09T01:46:15.664Z,99.99
2017-03-09T01:47:25.400Z,99.58
2017-03-09T01:48:35.175Z,99.99
2017-03-09T01:49:44.521Z,99.68
2017-03-09T01:50:54.253Z,99.4
2017-03-09T01:52:03.179Z,99.58
2017-03-09T01:53:12.514Z,99.58
2017-03-09T01:54:22.336Z,99.99
2017-03-09T01:55:32.072Z,99.58
2017-03-09T01:56:42.233Z,99.21
2017-03-09T01:57:51.565Z,99.49
2017-03-09T01:59:01.335Z,99.58
2017-03-09T02:00:10.355Z,99.49
2017-03-09T02:01:19.691Z,99.99
2017-03-09T02:02:28.625Z,99.58
2017-03-09T02:03:37.943Z,99.68
2017-03-09T02:04:48.094Z,99.4
2017-03-09T02:05:58.034Z,99.4
2017-03-09T02:07:07.786Z,99.68
2017-03-09T02:08:17.104Z,99.58
2017-03-09T02:09:26.839Z,99.49
2017-03-09T02:10:36.167Z,99.3
2017-03-09T02:11:46.051Z,99.4
2017-03-09T02:12:55.790Z,99.4
2017-03-09T02:14:04.727Z,99.49
2017-03-09T02:15:14.053Z,99.77
2017-03-09T02:16:23.392Z,99.58
2017-03-09T02:17:33.123Z,99.68
2017-03-09T02:18:42.033Z,99.3
2017-03-09T02:19:52.190Z,99.49
2017-03-09T02:21:01.923Z,99.49
2017-03-09T02:22:11.253Z,99.58
2017-03-09T02:23:20.319Z,99.21
2017-03-09T02:24:29.646Z,99.3
2017-03-09T02:25:38.966Z,98.73
2017-03-09T02:26:48.314Z,98.92
2017-03-09T02:27:58.055Z,99.3
2017-03-09T02:29:07.933Z,99.49
2017-03-09T02:30:17.282Z,99.58
2017-03-09T02:31:26.619Z,99.3
2017-03-09T02:32:35.940Z,99.3
2017-03-09T02:33:45.685Z,99.97
2017-03-09T02:34:55.824Z,99.99
2017-03-09T02:36:05.145Z,99.99
2017-03-09T02:37:14.055Z,99.99
2017-03-09T02:38:22.963Z,99.97
2017-03-09T02:39:31.876Z,99.99
2017-03-09T02:40:41.612Z,99.3
2017-03-09T02:41:51.347Z,99.3
2017-03-09T02:43:00.685Z,98.92
2017-03-09T02:44:10.424Z,99.11
2017-03-09T02:45:20.578Z,99.3
2017-03-09T02:46:30.882Z,99.49
2017-03-09T02:47:40.206Z,99.21
2017-03-09T02:48:49.936Z,99.4
2017-03-09T02:50:00.096Z,99.4
2017-03-09T02:51:09.869Z,99.4
2017-03-09T02:52:19.267Z,99.99
2017-03-09T02:53:28.992Z,99.99
2017-03-09T02:54:37.933Z,99.99
2017-03-09T02:55:47.671Z,99.99
2017-03-09T02:56:56.990Z,99.68
2017-03-09T02:58:06.103Z,99.97
2017-03-09T02:59:16.232Z,99.99
2017-03-09T03:00:25.550Z,99.99
2017-03-09T03:01:35.294Z,99.49
2017-03-09T03:02:44.618Z,99.58
2017-03-09T03:03:54.107Z,99.58
2017-03-09T03:05:03.469Z,99.3
2017-03-09T03:06:13.266Z,99.3
2017-03-09T03:07:22.990Z,99.49
2017-03-09T03:08:32.314Z,99.4
2017-03-09T03:09:42.308Z,99.54
2017-03-09T03:10:52.051Z,99.16
2017-03-09T03:12:01.412Z,99.35
2017-03-09T03:13:11.158Z,99.35
2017-03-09T03:14:20.920Z,99.49
2017-03-09T03:15:30.289Z,99.44
2017-03-09T03:16:40.845Z,99.4
2017-03-09T03:17:50.573Z,99.16
2017-03-09T03:18:59.910Z,99.26
2017-03-09T03:20:09.235Z,99.35
2017-03-09T03:21:18.729Z,99.44
2017-03-09T03:22:28.056Z,99.44
2017-03-09T03:23:36.970Z,99.06
2017-03-09T03:24:46.288Z,99.68
2017-03-09T03:25:55.621Z,99.35
2017-03-09T03:27:05.603Z,99.44
2017-03-09T03:28:14.945Z,99.44
2017-03-09T03:29:24.677Z,98.78
2017-03-09T03:30:33.592Z,98.78
2017-03-09T03:31:43.335Z,99.35
2017-03-09T03:32:52.760Z,98.97
2017-03-09T03:34:02.514Z,99.26
2017-03-09T03:35:12.651Z,99.35
2017-03-09T03:36:21.979Z,99.63
2017-03-09T03:37:31.733Z,99.44
2017-03-09T03:38:41.208Z,99.44
2017-03-09T03:39:50.534Z,98.87
2017-03-09T03:41:00.293Z,99.16
2017-03-09T03:42:10.038Z,99.44
2017-03-09T03:43:19.375Z,99.54
2017-03-09T03:44:28.902Z,99.54
2017-03-09T03:45:38.237Z,99.63
2017-03-09T03:46:47.586Z,98.78
2017-03-09T03:47:56.919Z,99.63
2017-03-09T03:49:05.865Z,99.73
2017-03-09T03:50:16.627Z,99.35
2017-03-09T03:51:25.945Z,99.44
2017-03-09T03:52:35.278Z,99.06
2017-03-09T03:53:44.596Z,99.99
2017-03-09T03:54:53.915Z,99.35
2017-03-09T03:56:02.883Z,99.99
2017-03-09T03:57:12.201Z,99.99
2017-03-09T03:58:21.546Z,99.44
2017-03-09T03:59:31.274Z,99.06
2017-03-09T04:00:41.421Z,99.99
2017-03-09T04:01:51.196Z,99.99
2017-03-09T04:03:00.934Z,99.99
2017-03-09T04:04:11.472Z,99.99
2017-03-09T04:05:20.409Z,99.91
2017-03-09T04:06:30.151Z,99.73
2017-03-09T04:07:39.932Z,99.99
2017-03-09T04:08:50.074Z,99.99
2017-03-09T04:09:59.403Z,99.16
2017-03-09T04:11:08.348Z,99.54
2017-03-09T04:12:17.667Z,99.44
2017-03-09T04:13:27.707Z,99.06
2017-03-09T04:14:37.046Z,99.26
2017-03-09T04:15:46.380Z,99.35
2017-03-09T04:16:55.700Z,99.73
2017-03-09T04:18:05.024Z,99.99
2017-03-09T04:19:14.958Z,99.99
2017-03-09T04:20:25.114Z,99.99
2017-03-09T04:21:34.431Z,99.73
2017-03-09T04:22:44.203Z,99.99
2017-03-09T04:23:53.925Z,99.91
2017-03-09T04:25:03.444Z,99.99
2017-03-09T04:26:12.770Z,99.99
2017-03-09T04:27:22.541Z,99.99
2017-03-09T04:28:31.888Z,99.99
2017-03-09T04:29:41.250Z,99.82
2017-03-09T04:30:50.852Z,99.91
2017-03-09T04:32:00.990Z,99.73
2017-03-09T04:33:09.909Z,99.91
2017-03-09T04:34:19.633Z,99.99
2017-03-09T04:35:29.391Z,99.99
2017-03-09T04:36:39.216Z,99.99
2017-03-09T04:37:49.360Z,99.91
2017-03-09T04:38:59.525Z,99.73
2017-03-09T04:40:08.440Z,99.35
2017-03-09T04:41:17.752Z,99.73
2017-03-09T04:42:28.058Z,99.99
2017-03-09T04:43:37.791Z,98.97
2017-03-09T04:44:47.107Z,99.35
2017-03-09T04:45:56.437Z,99.54
2017-03-09T04:47:06.183Z,99.99
2017-03-09T04:48:15.768Z,99.26
2017-03-09T04:49:24.706Z,99.16
2017-03-09T04:50:34.457Z,98.87
2017-03-09T04:51:44.186Z,99.54
2017-03-09T04:52:53.509Z,99.35
2017-03-09T04:54:02.578Z,99.73
2017-03-09T04:55:11.904Z,99.44
2017-03-09T04:56:20.814Z,99.73
2017-03-09T04:57:29.734Z,99.35
2017-03-09T04:58:38.683Z,99.54
2017-03-09T04:59:48.464Z,99.91
2017-03-09T05:00:57.788Z,99.99
2017-03-09T05:02:07.927Z,99.99
2017-03-09T05:03:17.259Z,99.54
2017-03-09T05:04:26.180Z,99.35
2017-03-09T05:05:35.282Z,99.99
2017-03-09T05:06:44.211Z,99.06
2017-03-09T05:07:53.538Z,99.35
2017-03-09T05:09:02.453Z,99.99
2017-03-09T05:10:11.397Z,99.26
2017-03-09T05:11:21.030Z,99.44
2017-03-09T05:12:30.392Z,99.44
2017-03-09T05:13:40.534Z,99.35
2017-03-09T05:14:49.866Z,99.26
2017-03-09T05:15:59.586Z,99.73
2017-03-09T05:17:08.615Z,99.54
2017-03-09T05:18:18.345Z,99.44
2017-03-09T05:19:27.675Z,99.44
2017-03-09T05:20:37.000Z,99.99
2017-03-09T05:21:47.163Z,99.91
2017-03-09T05:22:57.013Z,99.99
2017-03-09T05:24:05.937Z,99.82
2017-03-09T05:25:15.658Z,99.99
2017-03-09T05:26:25.400Z,99.91
2017-03-09T05:27:35.130Z,99.99
2017-03-09T05:28:44.524Z,99.99
2017-03-09T05:29:54.264Z,99.99
2017-03-09T05:31:03.621Z,99.99
2017-03-09T05:32:13.755Z,99.99
2017-03-09T05:33:23.126Z,99.99
2017-03-09T05:34:33.071Z,99.99
2017-03-09T05:35:42.804Z,99.99
2017-03-09T05:36:52.153Z,99.73
2017-03-09T05:38:01.100Z,99.91
2017-03-09T05:39:10.842Z,99.99
2017-03-09T05:40:20.719Z,99.73
2017-03-09T05:41:30.059Z,99.99
2017-03-09T05:42:39.384Z,99.99
2017-03-09T05:43:48.732Z,99.82
2017-03-09T05:44:57.654Z,99.91
2017-03-09T05:46:07.996Z,99.99
2017-03-09T05:47:16.903Z,99.91
2017-03-09T05:48:26.249Z,99.99
2017-03-09T05:49:35.163Z,99.99
2017-03-09T05:50:44.491Z,99.99
2017-03-09T05:51:54.290Z,99.99
2017-03-09T05:53:04.836Z,99.73
2017-03-09T05:54:14.603Z,99.91
2017-03-09T05:55:23.533Z,99.99
2017-03-09T05:56:33.686Z,99.99
2017-03-09T05:57:43.214Z,99.99
2017-03-09T05:58:52.543Z,99.99
2017-03-09T06:00:01.866Z,99.99
2017-03-09T06:01:11.197Z,99.99
2017-03-09T06:02:20.544Z,99.99
2017-03-09T06:03:30.290Z,99.99
2017-03-09T06:04:39.205Z,99.99
2017-03-09T06:05:48.555Z,99.99
2017-03-09T06:06:58.692Z,99.99
2017-03-09T06:08:08.114Z,99.99
2017-03-09T06:09:17.453Z,99.99
2017-03-09T06:10:27.199Z,99.99
2017-03-09T06:11:36.935Z,99.99
2017-03-09T06:12:46.280Z,99.99
2017-03-09T06:13:55.485Z,99.99
2017-03-09T06:15:04.826Z,99.99
2017-03-09T06:16:14.596Z,99.99
2017-03-09T06:17:23.508Z,99.99
2017-03-09T06:18:33.658Z,99.99
2017-03-09T06:19:43.952Z,99.99
2017-03-09T06:20:52.868Z,99.99
2017-03-09T06:22:01.787Z,99.99
2017-03-09T06:23:11.112Z,99.99
2017-03-09T06:24:20.876Z,99.99
2017-03-09T06:25:30.395Z,99.99
2017-03-09T06:26:40.542Z,99.99
2017-03-09T06:27:50.276Z,99.99
2017-03-09T06:29:00.039Z,99.99
2017-03-09T06:30:09.377Z,99.99
2017-03-09T06:31:19.175Z,99.99
2017-03-09T06:32:28.903Z,99.99
2017-03-09T06:33:37.827Z,99.99
2017-03-09T06:34:47.151Z,99.99
2017-03-09T06:35:56.477Z,99.99
2017-03-09T06:37:05.851Z,99.82
2017-03-09T06:38:14.764Z,99.99
2017-03-09T06:39:24.092Z,99.99
2017-03-09T06:40:33.013Z,99.99
2017-03-09T06:41:43.170Z,99.99
2017-03-09T06:42:53.067Z,99.99
2017-03-09T06:44:02.804Z,99.99
2017-03-09T06:45:11.773Z,99.99
2017-03-09T06:46:21.100Z,99.99
2017-03-09T06:47:30.015Z,99.99
2017-03-09T06:48:40.055Z,99.99
2017-03-09T06:49:49.793Z,99.99
2017-03-09T06:50:59.531Z,99.99
2017-03-09T06:52:08.882Z,99.99
2017-03-09T06:53:18.618Z,99.99
2017-03-09T06:54:29.414Z,99.99
2017-03-09T06:55:38.334Z,99.99
2017-03-09T06:56:48.055Z,99.99
2017-03-09T06:57:56.981Z,99.99
2017-03-09T06:59:06.716Z,99.99
2017-03-09T07:00:16.875Z,99.99
2017-03-09T07:01:25.796Z,99.99
2017-03-09T07:02:35.132Z,99.99
2017-03-09T07:03:44.466Z,99.99
2017-03-09T07:04:54.204Z,99.99
2017-03-09T07:06:04.405Z,99.99
2017-03-09T07:07:14.143Z,99.99
2017-03-09T07:08:23.508Z,99.99
2017-03-09T07:09:32.424Z,99.99
2017-03-09T07:10:42.153Z,99.99
2017-03-09T07:11:51.892Z,99.99
2017-03-09T07:13:01.611Z,99.99
2017-03-09T07:14:10.946Z,99.99
2017-03-09T07:15:21.100Z,99.99
2017-03-09T07:16:30.442Z,99.82
2017-03-09T07:17:39.719Z,99.99
2017-03-09T07:18:49.467Z,99.99
2017-03-09T07:19:58.798Z,99.99
2017-03-09T07:21:08.524Z,99.99
2017-03-09T07:22:17.440Z,99.99
2017-03-09T07:23:27.684Z,99.99
2017-03-09T07:24:37.031Z,99.99
2017-03-09T07:25:47.196Z,99.99
2017-03-09T07:26:56.529Z,99.99
2017-03-09T07:28:05.858Z,99.99
2017-03-09T07:29:15.478Z,99.99
2017-03-09T07:30:25.214Z,99.99
2017-03-09T07:31:34.121Z,99.99
2017-03-09T07:32:43.478Z,99.99
2017-03-09T07:33:52.794Z,99.99
2017-03-09T07:35:01.788Z,99.99
2017-03-09T07:36:11.136Z,99.99
2017-03-09T07:37:20.873Z,99.99
2017-03-09T07:38:30.198Z,99.99
2017-03-09T07:39:39.951Z,99.99
2017-03-09T07:40:49.516Z,99.99
2017-03-09T07:41:58.866Z,99.99
2017-03-09T07:43:07.803Z,99.99
2017-03-09T07:44:17.248Z,99.99
2017-03-09T07:45:27.387Z,99.99
2017-03-09T07:46:36.404Z,99.99
2017-03-09T07:47:45.758Z,99.99
2017-03-09T07:48:55.076Z,99.99
2017-03-09T07:50:04.448Z,99.99
2017-03-09T07:51:14.184Z,99.99
2017-03-09T07:52:23.668Z,99.97
2017-03-09T07:53:32.995Z,99.99
2017-03-09T07:54:42.745Z,99.99
2017-03-09T07:55:52.473Z,99.99
2017-03-09T07:57:01.794Z,99.99
2017-03-09T07:58:11.765Z,99.99
2017-03-09T07:59:21.096Z,99.99
2017-03-09T08:00:30.021Z,99.99
2017-03-09T08:01:38.955Z,99.99
2017-03-09T08:02:48.301Z,99.99
2017-03-09T08:03:58.111Z,99.99
2017-03-09T08:05:07.847Z,99.99
2017-03-09T08:06:17.999Z,99.99
2017-03-09T08:07:27.313Z,99.99
2017-03-09T08:08:36.230Z,99.99
2017-03-09T08:09:46.167Z,99.99
2017-03-09T08:10:55.508Z,99.99
2017-03-09T08:12:05.254Z,99.99
2017-03-09T08:13:14.181Z,99.99
2017-03-09T08:14:23.509Z,99.99
2017-03-09T08:15:33.375Z,99.99
2017-03-09T08:16:43.115Z,99.99
2017-03-09T08:17:52.439Z,99.99
2017-03-09T08:19:01.770Z,99.87
2017-03-09T08:20:11.118Z,99.99
2017-03-09T08:21:20.189Z,99.99
2017-03-09T08:22:29.930Z,99.97
2017-03-09T08:23:39.265Z,99.99
2017-03-09T08:24:49.037Z,99.99
2017-03-09T08:25:57.975Z,99.97
2017-03-09T08:27:07.311Z,99.58
2017-03-09T08:28:17.465Z,99.11
2017-03-09T08:29:26.780Z,99.4
2017-03-09T08:30:36.934Z,99.77
2017-03-09T08:31:46.295Z,99.49
2017-03-09T08:32:56.028Z,99.58
2017-03-09T08:34:05.768Z,99.49
2017-03-09T08:35:15.169Z,99.3
2017-03-09T08:36:24.943Z,99.02
2017-03-09T08:39:52.872Z,99.4
2017-03-09T08:41:03.018Z,98.83
2017-03-09T08:42:12.748Z,98.73
2017-03-09T08:43:21.675Z,99.3
2017-03-09T08:44:32.012Z,98.83
2017-03-09T08:45:41.753Z,98.92
2017-03-09T08:46:51.909Z,99.4
2017-03-09T08:48:00.851Z,99.3
2017-03-09T08:49:09.771Z,99.11
2017-03-09T08:50:18.928Z,98.83
2017-03-09T08:51:27.850Z,99.02
2017-03-09T08:52:36.778Z,99.16
2017-03-09T08:53:46.121Z,98.97
2017-03-09T08:54:56.254Z,98.59
2017-03-09T08:56:06.439Z,98.02
2017-03-09T08:57:15.759Z,98.4
2017-03-09T08:58:25.090Z,98.12
2017-03-09T08:59:35.230Z,97.74
2017-03-09T09:00:44.573Z,97.92
2017-03-09T09:01:53.884Z,97.74
2017-03-09T09:03:03.207Z,97.55
2017-03-09T09:04:12.530Z,97.83
2017-03-09T09:05:21.445Z,97.83
2017-03-09T09:06:30.766Z,97.64
2017-03-09T09:07:39.856Z,96.98
2017-03-09T09:08:49.584Z,96.69
2017-03-09T09:09:58.905Z,97.36
2017-03-09T09:11:07.827Z,96.79
2017-03-09T09:12:17.159Z,97.83
2017-03-09T09:13:27.059Z,96.88
2017-03-09T09:14:36.817Z,96.69
2017-03-09T09:15:46.177Z,96.31
2017-03-09T09:16:55.904Z,96.22
2017-03-09T09:18:05.658Z,96.41
2017-03-09T09:19:15.131Z,96.03
2017-03-09T09:20:24.884Z,96.98
2017-03-09T09:21:34.632Z,96.88
2017-03-09T09:22:43.959Z,96.12
2017-03-09T09:23:53.714Z,96.26
2017-03-09T09:25:03.606Z,95.6
2017-03-09T09:26:13.761Z,95.51
2017-03-09T09:27:23.491Z,95.51
2017-03-09T09:28:33.237Z,95.51
2017-03-09T09:29:42.984Z,95.51
2017-03-09T09:30:52.773Z,96.26
2017-03-09T09:32:02.117Z,96.17
2017-03-09T09:33:11.460Z,95.6
2017-03-09T09:34:20.372Z,95.7
2017-03-09T09:35:30.127Z,95.32
2017-03-09T09:36:40.953Z,95.6
2017-03-09T09:37:50.294Z,95.41
2017-03-09T09:39:00.431Z,95.32
2017-03-09T09:40:10.188Z,94.93
2017-03-09T09:41:20.346Z,94.65
2017-03-09T09:42:30.207Z,94.18
2017-03-09T09:43:39.964Z,93.99
2017-03-09T09:44:49.716Z,93.23
2017-03-09T09:45:59.462Z,93.6
2017-03-09T09:47:08.830Z,93.7
2017-03-09T09:48:18.720Z,93.75
2017-03-09T09:49:27.649Z,93.84
2017-03-09T09:50:36.971Z,93.55
2017-03-09T09:51:46.722Z,93.84
2017-03-09T09:52:56.465Z,93.08
2017-03-09T09:54:05.856Z,92.8
2017-03-09T09:55:15.596Z,92.7
2017-03-09T09:56:24.932Z,92.51
2017-03-09T09:57:33.843Z,92.51
2017-03-09T09:58:42.790Z,92.7
2017-03-09T09:59:52.291Z,92.61
2017-03-09T10:01:01.618Z,92.13
2017-03-09T10:02:10.541Z,91.94
2017-03-09T10:03:20.287Z,91.37
2017-03-09T10:04:29.212Z,91.66
2017-03-09T10:05:39.262Z,92.13
2017-03-09T10:06:49.014Z,91.94
2017-03-09T10:07:58.779Z,91.94
2017-03-09T10:09:08.111Z,92.41
2017-03-09T10:10:17.447Z,92.32
2017-03-09T10:11:26.926Z,92.41
2017-03-09T10:12:36.665Z,91.94
2017-03-09T10:13:46.821Z,92.22
2017-03-09T10:14:56.564Z,92.61
2017-03-09T10:16:05.479Z,92.22
2017-03-09T10:17:14.556Z,92.32
2017-03-09T10:18:24.292Z,92.13
2017-03-09T10:19:33.648Z,91.56
2017-03-09T10:20:43.379Z,91.61
2017-03-09T10:21:52.713Z,91.13
2017-03-09T10:23:03.153Z,91.13
2017-03-09T10:24:12.510Z,90.84
2017-03-09T10:25:22.252Z,91.28
2017-03-09T10:26:31.177Z,91.42
2017-03-09T10:27:40.917Z,90.94
2017-03-09T10:28:50.796Z,90.47
2017-03-09T10:30:00.947Z,90.28
2017-03-09T10:31:11.103Z,91.03
2017-03-09T10:32:20.872Z,90.47
2017-03-09T10:33:30.613Z,90.28
2017-03-09T10:34:40.961Z,90.28
2017-03-09T10:35:49.883Z,90.28
2017-03-09T10:36:59.613Z,89.8
2017-03-09T10:38:09.373Z,89.51
2017-03-09T10:39:19.126Z,89.42
2017-03-09T10:40:28.606Z,89.18
2017-03-09T10:41:37.942Z,88.79
2017-03-09T10:42:47.270Z,88.13
2017-03-09T10:43:56.999Z,87.94
2017-03-09T10:45:05.921Z,88.42
2017-03-09T10:46:14.893Z,88.42
2017-03-09T10:47:24.658Z,88.42
2017-03-09T10:48:33.981Z,87.75
2017-03-09T10:49:42.912Z,87.37
2017-03-09T10:50:52.647Z,87.56
2017-03-09T10:52:02.075Z,87.75
2017-03-09T10:53:11.431Z,87.08
2017-03-09T10:54:21.588Z,86.51
2017-03-09T10:55:32.135Z,86.51
2017-03-09T10:56:42.298Z,86.7
2017-03-09T10:57:51.796Z,86.04
2017-03-09T10:59:00.713Z,86.42
2017-03-09T11:00:09.647Z,85.28
2017-03-09T11:01:18.984Z,85.47
2017-03-09T11:02:28.335Z,85.41
2017-03-09T11:03:38.291Z,85.32
2017-03-09T11:04:47.228Z,85.13
2017-03-09T11:05:56.587Z,85.22
2017-03-09T11:07:06.333Z,84.36
2017-03-09T11:08:15.670Z,84.46
2017-03-09T11:09:24.741Z,84.65
2017-03-09T11:10:34.096Z,84.46
2017-03-09T11:11:43.033Z,84.46
2017-03-09T11:12:52.768Z,84.08
2017-03-09T11:14:02.134Z,84.08
2017-03-09T11:15:11.643Z,84.12
2017-03-09T11:16:20.973Z,83.93
2017-03-09T11:17:30.306Z,84.03
2017-03-09T11:18:40.079Z,83.84
2017-03-09T11:19:49.824Z,84.03
2017-03-09T11:20:59.248Z,83.74
2017-03-09T11:22:08.216Z,82.89
2017-03-09T11:23:17.543Z,82.12
2017-03-09T11:24:27.692Z,81.84
2017-03-09T11:25:36.608Z,82.41
2017-03-09T11:26:46.488Z,82.21
2017-03-09T11:27:56.653Z,82.03
2017-03-09T11:29:07.219Z,82.21
2017-03-09T11:30:16.152Z,82.03
2017-03-09T11:31:25.484Z,82.31
2017-03-09T11:32:34.875Z,82.89
2017-03-09T11:33:44.213Z,82.6
2017-03-09T11:34:53.557Z,82.69
2017-03-09T11:36:02.899Z,82.21
2017-03-09T11:37:11.828Z,81.84
2017-03-09T11:38:21.669Z,82.5
2017-03-09T11:39:31.001Z,83.65
2017-03-09T11:40:40.332Z,83.74
2017-03-09T11:41:49.667Z,83.84
2017-03-09T11:42:59.012Z,83.55
2017-03-09T11:44:08.395Z,83.26
2017-03-09T11:45:17.738Z,83.17
2017-03-09T11:46:27.069Z,83.26
2017-03-09T11:47:36.413Z,83.26
2017-03-09T11:48:46.167Z,83.74
2017-03-09T11:49:55.964Z,83.55
2017-03-09T11:51:04.893Z,83.65
2017-03-09T11:52:14.684Z,83.84
2017-03-09T11:53:24.426Z,83.84
2017-03-09T11:54:34.600Z,83.84
2017-03-09T11:55:44.811Z,83.17
2017-03-09T11:56:53.779Z,84.12
2017-03-09T11:58:02.717Z,83.17
2017-03-09T11:59:12.093Z,83.17
2017-03-09T12:00:21.846Z,83.36
2017-03-09T12:01:31.288Z,82.73
2017-03-09T12:02:41.077Z,82.45
2017-03-09T12:03:51.288Z,82.98
2017-03-09T12:05:01.442Z,82.92
2017-03-09T12:06:12.027Z,82.26
2017-03-09T12:07:21.818Z,83.5
2017-03-09T12:08:31.173Z,82.64
2017-03-09T12:09:41.382Z,82.07
2017-03-09T12:10:50.710Z,82.35
2017-03-09T12:11:59.708Z,82.07
2017-03-09T12:13:09.595Z,82.17
2017-03-09T12:14:18.935Z,82.17
2017-03-09T12:15:28.311Z,81.97
2017-03-09T12:16:37.667Z,81.49
2017-03-09T12:17:47.847Z,81.88
2017-03-09T12:18:57.744Z,82.73
2017-03-09T12:20:07.136Z,82.17
2017-03-09T12:21:16.473Z,82.07
2017-03-09T12:22:26.231Z,81.59
2017-03-09T12:23:35.581Z,81.59
2017-03-09T12:24:44.577Z,81.49
2017-03-09T12:25:54.778Z,81.12
2017-03-09T12:27:03.723Z,81.21
2017-03-09T12:28:13.060Z,80.26
2017-03-09T12:29:22.393Z,79.59
2017-03-09T12:30:31.612Z,79.68
2017-03-09T12:31:40.944Z,80.26
2017-03-09T12:32:49.888Z,80.54
2017-03-09T12:33:59.654Z,80.26
2017-03-09T12:35:09.441Z,80.44
2017-03-09T12:36:18.990Z,80.35
2017-03-09T12:37:27.934Z,80.73
2017-03-09T12:38:37.331Z,80.07
2017-03-09T12:39:47.505Z,80.79
2017-03-09T12:40:56.838Z,80.41
2017-03-09T12:42:07.141Z,80.26
2017-03-09T12:43:16.124Z,80.92
2017-03-09T12:44:25.478Z,80.69
2017-03-09T12:45:35.219Z,80.92
2017-03-09T12:46:44.143Z,83.93
2017-03-09T12:47:54.477Z,83.07
2017-03-09T12:49:04.450Z,83.93
2017-03-09T12:50:13.498Z,84.69
2017-03-09T12:51:23.368Z,84.5
2017-03-09T12:52:32.715Z,85.46
2017-03-09T12:53:41.907Z,84.98
2017-03-09T12:54:51.269Z,85.84
2017-03-09T12:56:00.600Z,87.07
2017-03-09T12:57:09.925Z,85.64
2017-03-09T12:58:19.306Z,86.6
2017-03-09T12:59:28.778Z,86.98
2017-03-09T13:00:38.530Z,88.03
2017-03-09T13:01:47.877Z,88.79
2017-03-09T13:02:57.642Z,88.31
2017-03-09T13:04:06.981Z,88.12
2017-03-09T13:05:16.605Z,87.27
2017-03-09T13:06:25.958Z,87.27
2017-03-09T13:07:34.911Z,87.41
2017-03-09T13:08:44.255Z,87.84
2017-03-09T13:09:54.021Z,88.03
2017-03-09T13:11:03.821Z,87.74
2017-03-09T13:12:13.971Z,88.79
2017-03-09T13:13:22.928Z,89.17
2017-03-09T13:14:33.111Z,89.32
2017-03-09T13:15:42.030Z,89.98
2017-03-09T13:16:50.954Z,91.03
2017-03-09T13:18:00.696Z,91.89
2017-03-09T13:19:09.616Z,92.55
2017-03-09T13:20:18.546Z,93.13
2017-03-09T13:21:27.464Z,92.84
2017-03-09T13:22:36.596Z,93.41
2017-03-09T13:23:45.517Z,94.17
2017-03-09T13:24:54.881Z,94.84
2017-03-09T13:26:04.620Z,94.08
2017-03-09T13:27:13.947Z,93.98
2017-03-09T13:28:23.340Z,95.12
2017-03-09T13:29:32.702Z,95.6
2017-03-09T13:30:42.034Z,95.6
2017-03-09T13:31:50.971Z,96.03
2017-03-09T13:33:01.535Z,95.84
2017-03-09T13:34:11.188Z,96.98
2017-03-09T13:35:20.511Z,96.31
2017-03-09T13:36:29.880Z,97.27
2017-03-09T13:37:39.213Z,98.32
2017-03-09T13:38:48.134Z,98.13
2017-03-09T13:39:57.766Z,99.08
2017-03-09T13:41:06.743Z,99.65
2017-03-09T13:42:16.542Z,99.99
2017-03-09T13:43:25.895Z,99.99
2017-03-09T13:44:35.650Z,99.99
2017-03-09T13:45:45.095Z,99.99
2017-03-09T13:46:54.015Z,99.99
2017-03-09T13:48:03.767Z,99.99
2017-03-09T13:49:13.546Z,99.99
2017-03-09T13:50:22.511Z,99.99
2017-03-09T13:51:31.534Z,99.99
2017-03-09T13:52:40.498Z,99.99
2017-03-09T13:53:50.250Z,99.99
2017-03-09T13:54:59.572Z,99.99
2017-03-09T13:56:08.944Z,99.99
2017-03-09T13:57:18.436Z,99.99
2017-03-09T13:58:27.367Z,99.99
2017-03-09T13:59:36.693Z,99.99
2017-03-09T14:00:46.433Z,99.99
2017-03-09T14:01:55.371Z,99.99
2017-03-09T14:03:04.556Z,99.99
2017-03-09T14:04:13.888Z,99.99
2017-03-09T14:05:23.624Z,99.99
2017-03-09T14:06:32.976Z,99.99
2017-03-09T14:07:41.949Z,99.99
2017-03-09T14:08:51.822Z,99.99
2017-03-09T14:10:01.973Z,99.99
2017-03-09T14:11:12.119Z,99.99
2017-03-09T14:12:21.507Z,99.99
2017-03-09T14:13:31.246Z,99.99
2017-03-09T14:14:40.828Z,99.99
2017-03-09T14:15:50.986Z,99.99
2017-03-09T14:16:59.947Z,99.99
2017-03-09T14:18:09.300Z,99.99
2017-03-09T14:19:19.080Z,99.99
2017-03-09T14:20:28.920Z,99.99
2017-03-09T14:21:37.861Z,99.99
2017-03-09T14:22:46.779Z,99.99
2017-03-09T14:23:56.513Z,99.99
2017-03-09T14:25:06.283Z,99.99
2017-03-09T14:26:15.972Z,99.99
2017-03-09T14:27:24.892Z,99.99
2017-03-09T14:28:34.230Z,99.99
2017-03-09T14:29:43.988Z,99.99
2017-03-09T14:30:53.339Z,99.99
2017-03-09T14:32:02.781Z,99.99
2017-03-09T14:33:12.123Z,99.99
2017-03-09T14:34:21.065Z,99.99
2017-03-09T14:35:30.407Z,99.99
2017-03-09T14:36:39.743Z,99.99
2017-03-09T14:37:48.975Z,99.99
2017-03-09T14:38:57.924Z,99.99
2017-03-09T14:40:07.652Z,99.99
2017-03-09T14:41:17.408Z,99.99
2017-03-09T14:42:26.731Z,99.99
2017-03-09T14:43:36.777Z,99.99
2017-03-09T14:44:46.112Z,99.99
2017-03-09T14:45:56.143Z,99.99
2017-03-09T14:47:05.215Z,99.99
2017-03-09T14:48:15.579Z,99.99
2017-03-09T14:49:24.927Z,99.99
2017-03-09T14:50:33.874Z,99.99
2017-03-09T14:51:43.219Z,99.99
2017-03-09T14:52:52.158Z,99.99
2017-03-09T14:54:01.487Z,99.99
2017-03-09T14:55:11.231Z,99.99
2017-03-09T14:56:21.394Z,99.99
2017-03-09T14:57:30.324Z,99.99
2017-03-09T14:58:40.053Z,99.99
2017-03-09T14:59:49.384Z,99.99